Etusivu
METAR-TAF:

METAR-TAF

Lentoasemat :

Houston, Texas, Yhdysvallat

Leveyspiiri: 29-48-18N, Pituuspiiri: 095-53-52W, korkeus merenpinnasta: 51 m

Tämänhetkinen sää

Tämä raportti tehtiin 20 minuuttia sitten, kello 21.55 UTC
tyyntä
Lämpötila 23°C
Kosteus 69%
Ilmanpaine 1015 hPa
Näkyvyys: 16.1 km
Hajonneita pilviä 3000 ft:n korkeudessa
Hajonneita pilviä 3400 ft:n korkeudessa

METAR: KTME 162155Z AUTO 00000KT 10SM BKN030 BKN034 23/17 A2997 RMK AO2

Aika: 15:15 (22:15 UTC)


TAF: puuttuu

Säähavainnot ja -ennusteet yli 4000 lentoasemalta (METAR- ja TAF-raportit).

Käytössä olevat sääasemat on merkitty karttaan keltaisilla ja punaisilla pisteillä.

Aseta hiiri pisteen päälle nähdäksesi sääaseman nimen.

Klikkaa sitten nähdäksesi säähavainnot ja -ennusteet.

Kartan vaihtaminen: klikkaa mustalla rastilla varustettuja vihreitä pisteitä, niin voit zoomata sisään; viivalla varustettua vihreää pistettä, niin voit zoomata ulos tai vihreitä nuolia, niin pääset viereisille kartoille.


METAR-TAF: